Tongue Point, Oregon
Current Conditions -  °F | °C
As of 6:12 PM on Saturday 25 Oct 2014 (Local Time) from KAST Reporting Station
Light Rain Light Rain  
Wind Chill: 54°   Ceiling: 3300
Heat Index: 54°   Visibility: 6mi
Dew Point: 49°   Wind: 22mph
Humidity: 83%   Direction: 270°W
Pressure: 29.55"   Gusts: 35mph
Location:  46.0947°N, 123.685°W
Report Text: KAST 260112Z AUTO 27019G30KT 6SM -RA FEW019 SCT025 OVC033 12/09 A2955 RMK AO2 PK WND 28030/0103 CIG 027 RWY 08 PRESRR P0004 T01220094
Loading
Personal Weather Stations






























Interactive Weather Map
Tropical Storm Tracking
New forecast layout! Learn more

10-Day Weather Forecast

Advertisements
Track Severe Weather on mobile